Главная страница
METAR-TAF:

METAR-TAF

Аэропорты :

Аэропорт Хуари Бумедьен

Алжир, Алжир

широта: 36-43N, долгота: 003-15E, высота над уровнем моря: 25 м

Текущие метеонаблюдения

Эта сводка был подготовлена 37 минут назад, в 21:00 UTC
Ветер 2 Узел от южный-юго-западный
Температура 9°C
Влажность 93%
Давление 1020 hPa
Видимость 10 км и более
небольшая облачность на высоте 2000 фута

METAR: DAAG 122100Z 21002KT 9999 FEW020 09/08 Q1020

Время: 22:37 (21:37 UTC)

Прогноз

Эта сводка был подготовлена 4 часа и 37 минут назад, в 17:00 UTC
Прогноз действительный с 12-го 18 UTC до 13-го 18 UTC
Ветер 2 Узел переменных направлений
Видимость 10 км и более
небольшая облачность на высоте 2600 фута
Вероятность 30% :
временами
С 12-го 22 UTC до 13-го 06 UTC
Видимость: 3000 м
Рассеянная облачность на высоте 1500 фута
дымка
изменения
С 13-го 08 UTC до 13-го 11 UTC
Ветер 10 Узел от западный-юго-западный

TAF: DAAG 121700Z 1218/1318 VRB02KT 9999 FEW026 PROB30 TEMPO 1222/1306 3000 BR BKN015 BECMG 1308/1311 24010KT

Метеонаблюдения и прогнозы для более 4000 аэропортов (сводки METAR и TAF).

Имеющиеся станции представлены на карте желтыми и красными точками.

Чтобы увидеть название станции, наведите на нее мышь.

Затем щелкните, чтобы увидеть метеонаблюдения и метеопрогнозы.

Управление картой: чтобы увеличить масштаб, щелкните зеленые кнопки с черным крестиком; чтобы уменьшить масштаб, щелкните зеленую кнопку с тире; для просмотра соседних карт щелкайте зеленые стрелки.


METAR-TAF: